createdAt,value
2019-04-10T00:01:28.054Z,22.77
2019-04-10T00:03:56.823Z,24.57
2019-04-10T00:06:25.822Z,23.50
2019-04-10T00:08:54.787Z,21.97
2019-04-10T00:11:24.818Z,22.90
2019-04-10T00:13:53.560Z,22.00
2019-04-10T00:16:22.471Z,22.42
2019-04-10T00:18:51.181Z,24.32
2019-04-10T00:21:20.889Z,22.42
2019-04-10T00:23:49.947Z,22.85
2019-04-10T00:26:18.552Z,21.25
2019-04-10T00:28:47.731Z,22.60
2019-04-10T00:31:16.524Z,23.87
2019-04-10T00:33:45.170Z,22.48
2019-04-10T00:36:14.150Z,22.95
2019-04-10T00:38:42.726Z,22.87
2019-04-10T00:41:12.111Z,22.07
2019-04-10T00:43:41.523Z,22.65
2019-04-10T00:46:10.447Z,23.67
2019-04-10T00:48:39.752Z,23.20
2019-04-10T00:51:08.889Z,23.32
2019-04-10T00:53:37.902Z,21.97
2019-04-10T00:56:06.363Z,22.48
2019-04-10T00:58:35.317Z,21.55
2019-04-10T01:01:05.514Z,22.45
2019-04-10T01:03:43.669Z,22.85
2019-04-10T01:06:14.418Z,22.77
2019-04-10T01:08:43.023Z,23.05
2019-04-10T01:11:11.757Z,23.15
2019-04-10T01:13:41.092Z,23.47
2019-04-10T01:16:09.970Z,22.93
2019-04-10T01:18:39.502Z,22.02
2019-04-10T01:21:08.435Z,21.75
2019-04-10T01:23:38.002Z,22.13
2019-04-10T01:26:07.241Z,22.22
2019-04-10T01:28:36.673Z,23.35
2019-04-10T01:31:06.652Z,22.75
2019-04-10T01:33:36.725Z,21.70
2019-04-10T01:36:05.606Z,22.77
2019-04-10T01:38:34.222Z,22.15
2019-04-10T01:41:03.615Z,22.10
2019-04-10T01:43:32.984Z,21.50
2019-04-10T01:46:02.101Z,20.32
2019-04-10T01:48:34.436Z,21.82
2019-04-10T01:51:03.260Z,22.73
2019-04-10T01:53:31.734Z,20.75
2019-04-10T01:56:00.301Z,20.32
2019-04-10T01:58:29.436Z,19.42
2019-04-10T02:01:03.872Z,20.45
2019-04-10T02:03:32.722Z,19.52
2019-04-10T02:06:01.392Z,20.88
2019-04-10T02:08:29.935Z,20.00
2019-04-10T02:10:58.692Z,20.50
2019-04-10T02:13:27.651Z,20.20
2019-04-10T02:15:56.710Z,20.30
2019-04-10T02:18:25.555Z,19.42
2019-04-10T02:20:54.108Z,18.92
2019-04-10T02:23:22.664Z,19.50
2019-04-10T02:25:51.183Z,20.35
2019-04-10T02:28:20.708Z,19.77
2019-04-10T02:30:50.206Z,18.60
2019-04-10T02:33:18.869Z,20.12
2019-04-10T02:35:47.870Z,21.05
2019-04-10T02:38:37.347Z,20.20
2019-04-10T02:40:47.627Z,19.15
2019-04-10T02:43:16.454Z,20.20
2019-04-10T02:45:44.951Z,21.05
2019-04-10T02:48:14.913Z,19.55
2019-04-10T02:50:44.892Z,19.17
2019-04-10T02:53:15.325Z,20.35
2019-04-10T02:55:43.956Z,19.35
2019-04-10T02:58:14.081Z,19.82
2019-04-10T03:00:44.186Z,20.27
2019-04-10T03:03:13.817Z,20.40
2019-04-10T03:05:42.857Z,20.45
2019-04-10T03:08:13.258Z,19.35
2019-04-10T03:10:49.615Z,20.80
2019-04-10T03:13:13.728Z,20.10
2019-04-10T03:15:43.478Z,19.60
2019-04-10T03:18:12.698Z,20.40
2019-04-10T03:20:42.610Z,18.30
2019-04-10T03:23:11.644Z,20.30
2019-04-10T03:25:41.416Z,19.20
2019-04-10T03:28:11.157Z,20.27
2019-04-10T03:30:41.561Z,20.62
2019-04-10T03:33:18.385Z,20.55
2019-04-10T03:35:45.103Z,20.80
2019-04-10T03:38:14.778Z,20.52
2019-04-10T03:40:43.736Z,20.00
2019-04-10T03:43:12.458Z,21.02
2019-04-10T03:45:41.158Z,20.48
2019-04-10T03:48:09.748Z,21.37
2019-04-10T03:50:38.286Z,20.57
2019-04-10T03:53:07.581Z,21.40
2019-04-10T03:55:36.856Z,20.20
2019-04-10T03:58:05.487Z,21.23
2019-04-10T04:00:34.297Z,21.12
2019-04-10T04:03:02.941Z,22.05
2019-04-10T04:05:31.505Z,21.02
2019-04-10T04:08:01.206Z,20.60
2019-04-10T04:10:30.766Z,20.48
2019-04-10T04:13:00.194Z,20.82
2019-04-10T04:15:30.225Z,20.75
2019-04-10T04:18:00.253Z,21.75
2019-04-10T04:20:29.103Z,21.82
2019-04-10T04:22:57.725Z,21.17
2019-04-10T04:25:26.191Z,21.68
2019-04-10T04:27:54.760Z,22.20
2019-04-10T04:30:23.369Z,21.97
2019-04-10T04:32:51.951Z,20.80
2019-04-10T04:35:20.491Z,22.17
2019-04-10T04:37:49.044Z,21.35
2019-04-10T04:40:17.582Z,23.18
2019-04-10T04:42:47.126Z,21.50
2019-04-10T04:45:15.961Z,23.22
2019-04-10T04:47:44.572Z,21.60
2019-04-10T04:50:13.186Z,22.82
2019-04-10T04:52:41.681Z,22.58
2019-04-10T04:55:10.586Z,23.95
2019-04-10T04:57:40.667Z,21.15
2019-04-10T05:00:10.687Z,22.95
2019-04-10T05:02:39.269Z,22.40
2019-04-10T05:05:08.772Z,23.32
2019-04-10T05:07:37.655Z,22.65
2019-04-10T05:10:09.004Z,21.60
2019-04-10T05:12:38.076Z,21.07
2019-04-10T05:15:09.423Z,22.17
2019-04-10T05:17:37.807Z,23.62
2019-04-10T05:20:07.413Z,22.67
2019-04-10T05:22:36.001Z,21.55
2019-04-10T05:25:06.842Z,20.92
2019-04-10T05:27:35.519Z,22.58
2019-04-10T05:30:06.275Z,24.07
2019-04-10T05:32:35.395Z,23.60
2019-04-10T05:35:07.404Z,22.65
2019-04-10T05:37:35.895Z,23.20
2019-04-10T05:40:07.682Z,22.73
2019-04-10T05:42:37.423Z,20.97
2019-04-10T05:45:07.406Z,23.35
2019-04-10T05:47:36.607Z,20.82
2019-04-10T05:50:06.518Z,22.50
2019-04-10T05:52:35.365Z,20.65
2019-04-10T05:55:04.636Z,21.48
2019-04-10T05:57:33.178Z,20.90
2019-04-10T06:00:02.734Z,21.52
2019-04-10T06:02:32.129Z,21.90
2019-04-10T06:05:02.357Z,20.57
2019-04-10T06:07:31.056Z,20.72
2019-04-10T06:10:04.828Z,21.45
2019-04-10T06:12:30.897Z,22.48
2019-04-10T06:14:59.517Z,22.17
2019-04-10T06:17:28.044Z,21.05
2019-04-10T06:19:56.742Z,19.82
2019-04-10T06:22:26.430Z,20.08
2019-04-10T06:24:55.125Z,22.25
2019-04-10T06:27:24.221Z,20.52
2019-04-10T06:29:53.196Z,19.70
2019-04-10T06:32:22.204Z,21.02
2019-04-10T06:34:50.878Z,20.37
2019-04-10T06:37:19.525Z,20.43
2019-04-10T06:39:49.017Z,21.40
2019-04-10T06:42:17.841Z,20.17
2019-04-10T06:44:46.454Z,21.15
2019-04-10T06:47:15.080Z,21.62
2019-04-10T06:49:43.957Z,22.15
2019-04-10T06:52:12.496Z,20.52
2019-04-10T06:54:41.038Z,20.00
2019-04-10T06:57:10.450Z,22.15
2019-04-10T06:59:41.965Z,22.00
2019-04-10T07:02:20.315Z,21.52
2019-04-10T07:04:46.024Z,20.72
2019-04-10T07:07:13.723Z,20.60
2019-04-10T07:09:40.620Z,20.57
2019-04-10T07:12:10.079Z,21.35
2019-04-10T07:14:40.950Z,20.08
2019-04-10T07:17:10.571Z,20.27
2019-04-10T07:19:41.478Z,20.82
2019-04-10T07:22:12.487Z,19.80
2019-04-10T07:24:42.519Z,20.68
2019-04-10T07:27:10.410Z,21.20
2019-04-10T07:29:39.022Z,21.50
2019-04-10T07:32:09.639Z,20.00
2019-04-10T07:34:38.016Z,20.37
2019-04-10T07:37:07.955Z,21.50
2019-04-10T07:39:37.488Z,21.52
2019-04-10T07:42:06.295Z,21.95
2019-04-10T07:44:34.820Z,21.30
2019-04-10T07:47:03.395Z,20.40
2019-04-10T07:49:32.988Z,20.05
2019-04-10T07:52:02.444Z,22.22
2019-04-10T07:54:33.057Z,22.58
2019-04-10T07:57:02.200Z,22.37
2019-04-10T07:59:31.286Z,23.30
2019-04-10T08:02:00.142Z,18.73
2019-04-10T08:04:29.071Z,21.82
2019-04-10T08:06:58.736Z,19.37
2019-04-10T08:09:27.540Z,20.85
2019-04-10T08:11:56.695Z,20.85
2019-04-10T08:14:27.424Z,21.05
2019-04-10T08:16:57.316Z,23.22
2019-04-10T08:19:27.583Z,22.82
2019-04-10T08:21:56.919Z,21.80
2019-04-10T08:24:25.941Z,22.25
2019-04-10T08:26:54.837Z,21.77
2019-04-10T08:29:23.917Z,20.45
2019-04-10T08:31:52.823Z,21.33
2019-04-10T08:34:21.671Z,21.65
2019-04-10T08:36:52.678Z,22.45
2019-04-10T08:39:32.401Z,20.88
2019-04-10T08:41:52.144Z,20.43
2019-04-10T08:44:20.770Z,20.62
2019-04-10T08:46:50.334Z,20.85
2019-04-10T08:49:18.950Z,22.80
2019-04-10T08:51:47.932Z,22.02
2019-04-10T08:54:16.776Z,22.05
2019-04-10T08:56:45.409Z,20.52
2019-04-10T08:59:13.956Z,21.70
2019-04-10T09:01:42.587Z,22.93
2019-04-10T09:04:11.192Z,24.60
2019-04-10T09:06:39.850Z,23.70
2019-04-10T09:09:09.653Z,20.85
2019-04-10T09:11:38.795Z,21.57
2019-04-10T09:14:08.571Z,22.42
2019-04-10T09:16:38.485Z,22.67
2019-04-10T09:19:07.286Z,22.15
2019-04-10T09:21:35.936Z,23.62
2019-04-10T09:24:04.760Z,22.73
2019-04-10T09:26:33.579Z,23.12
2019-04-10T09:29:02.547Z,22.93
2019-04-10T09:31:31.606Z,24.55
2019-04-10T09:34:01.990Z,23.55
2019-04-10T09:36:30.645Z,23.55
2019-04-10T09:38:59.269Z,23.10
2019-04-10T09:41:29.807Z,23.87
2019-04-10T09:43:58.549Z,23.52
2019-04-10T09:46:27.160Z,22.80
2019-04-10T09:48:56.208Z,24.18
2019-04-10T09:51:25.598Z,23.95
2019-04-10T09:53:54.428Z,23.60
2019-04-10T09:56:23.092Z,22.00
2019-04-10T09:58:51.948Z,23.00
2019-04-10T10:01:21.949Z,23.40
2019-04-10T10:03:50.912Z,22.73
2019-04-10T10:06:27.341Z,22.75
2019-04-10T10:08:50.237Z,22.02
2019-04-10T10:11:18.884Z,21.33
2019-04-10T10:13:48.235Z,21.35
2019-04-10T10:16:17.183Z,21.95
2019-04-10T10:18:45.895Z,23.07
2019-04-10T10:21:14.539Z,22.55
2019-04-10T10:23:44.384Z,21.85
2019-04-10T10:26:13.430Z,20.68
2019-04-10T10:28:42.939Z,21.95
2019-04-10T10:31:11.697Z,21.90
2019-04-10T10:33:40.182Z,22.87
2019-04-10T10:36:08.724Z,19.15
2019-04-10T10:38:37.332Z,21.68
2019-04-10T10:41:06.740Z,21.82
2019-04-10T10:43:36.291Z,19.77
2019-04-10T10:46:07.223Z,20.17
2019-04-10T10:48:36.029Z,20.92
2019-04-10T10:51:04.681Z,19.48
2019-04-10T10:53:34.265Z,20.72
2019-04-10T10:56:04.223Z,18.90
2019-04-10T10:58:33.128Z,19.10
2019-04-10T11:01:01.736Z,20.25
2019-04-10T11:03:30.368Z,17.73
2019-04-10T11:05:58.978Z,20.72
2019-04-10T11:08:27.582Z,20.10
2019-04-10T11:10:57.566Z,19.30
2019-04-10T11:13:26.647Z,19.82
2019-04-10T11:15:56.242Z,19.57
2019-04-10T11:18:24.982Z,20.85
2019-04-10T11:20:59.321Z,19.77
2019-04-10T11:23:28.346Z,20.65
2019-04-10T11:25:57.684Z,21.10
2019-04-10T11:28:30.186Z,20.40
2019-04-10T11:30:56.991Z,19.87
2019-04-10T11:33:26.337Z,19.37
2019-04-10T11:35:55.265Z,20.23
2019-04-10T11:38:25.890Z,20.70
2019-04-10T11:40:57.396Z,28.12
2019-04-10T11:43:26.087Z,20.17
2019-04-10T11:45:58.513Z,21.07
2019-04-10T11:48:27.937Z,19.80
2019-04-10T11:53:27.212Z,20.15
2019-04-10T11:56:00.312Z,19.87
2019-04-10T11:58:28.972Z,21.73
2019-04-10T12:00:59.610Z,18.95
2019-04-10T12:03:28.318Z,20.80
2019-04-10T12:05:59.557Z,19.42
2019-04-10T12:08:51.719Z,19.50
2019-04-10T12:13:27.722Z,20.95
2019-04-10T12:15:56.784Z,19.87
2019-04-10T12:18:26.640Z,21.60
2019-04-10T12:20:55.688Z,20.70
2019-04-10T12:23:25.109Z,19.07
2019-04-10T12:25:53.991Z,21.90
2019-04-10T12:28:22.729Z,20.50
2019-04-10T12:30:51.349Z,19.77
2019-04-10T12:33:21.208Z,24.45
2019-04-10T12:35:50.158Z,21.05
2019-04-10T12:38:19.330Z,19.65
2019-04-10T12:40:48.183Z,19.60
2019-04-10T12:43:16.827Z,20.68
2019-04-10T12:45:46.530Z,22.00
2019-04-10T12:48:16.605Z,19.45
2019-04-10T12:50:45.390Z,20.92
2019-04-10T12:53:13.984Z,20.37
2019-04-10T12:55:43.743Z,18.65
2019-04-10T12:58:16.199Z,18.52
2019-04-10T13:00:42.994Z,20.20
2019-04-10T13:03:11.573Z,19.45
2019-04-10T13:05:41.155Z,19.80
2019-04-10T13:08:17.815Z,19.07
2019-04-10T13:10:40.499Z,21.27
2019-04-10T13:13:09.523Z,20.37
2019-04-10T13:15:39.341Z,19.05
2019-04-10T13:18:08.963Z,19.37
2019-04-10T13:20:37.893Z,19.40
2019-04-10T13:23:06.682Z,19.52
2019-04-10T13:25:36.642Z,19.17
2019-04-10T13:28:05.532Z,19.10
2019-04-10T13:30:44.766Z,19.73
2019-04-10T13:33:05.343Z,19.30
2019-04-10T13:35:35.440Z,19.85
2019-04-10T13:38:05.172Z,20.62
2019-04-10T13:40:33.710Z,19.05
2019-04-10T13:43:03.272Z,18.12
2019-04-10T13:45:32.163Z,18.35
2019-04-10T13:48:00.905Z,19.10
2019-04-10T13:50:30.691Z,17.87
2019-04-10T13:52:59.681Z,18.27
2019-04-10T13:55:28.507Z,19.00
2019-04-10T13:57:57.218Z,17.50
2019-04-10T14:00:39.545Z,18.17
2019-04-10T14:03:06.964Z,18.92
2019-04-10T14:05:36.948Z,18.00
2019-04-10T14:08:06.834Z,17.20
2019-04-10T14:10:37.038Z,18.00
2019-04-10T14:13:05.725Z,18.87
2019-04-10T14:15:34.323Z,22.02
2019-04-10T14:18:03.317Z,17.15
2019-04-10T14:20:32.173Z,18.48
2019-04-10T14:23:12.291Z,17.80
2019-04-10T14:25:49.774Z,17.85
2019-04-10T14:28:21.869Z,18.75
2019-04-10T14:30:51.603Z,19.07
2019-04-10T14:33:21.285Z,18.67
2019-04-10T14:35:50.277Z,17.27
2019-04-10T14:38:19.032Z,17.65
2019-04-10T14:40:49.185Z,19.20
2019-04-10T14:43:18.739Z,19.35
2019-04-10T14:45:48.039Z,17.48
2019-04-10T14:48:20.176Z,18.57
2019-04-10T14:50:49.232Z,18.65
2019-04-10T14:53:17.786Z,18.15
2019-04-10T14:55:46.399Z,18.17
2019-04-10T14:58:23.962Z,18.60
2019-04-10T15:00:49.515Z,19.75
2019-04-10T15:03:20.256Z,19.12
2019-04-10T15:05:51.435Z,16.40
2019-04-10T15:08:19.690Z,18.27
2019-04-10T15:10:48.283Z,18.30
2019-04-10T15:13:20.979Z,17.27
2019-04-10T15:15:48.279Z,17.23
2019-04-10T15:18:17.039Z,18.85
2019-04-10T15:20:45.726Z,17.52
2019-04-10T15:23:15.403Z,19.32
2019-04-10T15:25:44.270Z,19.87
2019-04-10T15:28:13.965Z,19.00
2019-04-10T15:30:42.669Z,17.75
2019-04-10T15:33:12.146Z,17.77
2019-04-10T15:35:41.766Z,17.75
2019-04-10T15:38:11.722Z,18.30
2019-04-10T15:40:40.495Z,18.23
2019-04-10T15:43:09.055Z,17.92
2019-04-10T15:45:39.962Z,17.42
2019-04-10T15:48:10.485Z,19.73
2019-04-10T15:50:39.521Z,18.00
2019-04-10T15:53:09.638Z,19.25
2019-04-10T15:55:38.473Z,18.65
2019-04-10T15:58:08.632Z,18.55
2019-04-10T16:00:37.420Z,17.67
2019-04-10T16:03:06.053Z,19.60
2019-04-10T16:05:34.650Z,18.17
2019-04-10T16:08:03.302Z,17.62
2019-04-10T16:10:33.947Z,17.23
2019-04-10T16:13:14.458Z,18.07
2019-04-10T16:15:44.923Z,17.17
2019-04-10T16:18:15.697Z,18.73
2019-04-10T16:20:45.877Z,17.70
2019-04-10T16:23:27.497Z,18.48
2019-04-10T16:25:55.463Z,19.37
2019-04-10T16:28:24.029Z,15.80
2019-04-10T16:30:52.921Z,18.52
2019-04-10T16:33:21.577Z,16.75
2019-04-10T16:35:50.218Z,16.35
2019-04-10T16:38:18.822Z,16.32
2019-04-10T16:40:47.989Z,16.27
2019-04-10T16:43:16.958Z,16.82
2019-04-10T16:45:46.790Z,15.70
2019-04-10T16:48:16.907Z,16.42
2019-04-10T16:50:46.035Z,17.12
2019-04-10T16:53:14.653Z,16.05
2019-04-10T16:55:43.293Z,18.57
2019-04-10T16:58:11.978Z,16.62
2019-04-10T17:00:41.701Z,15.75
2019-04-10T17:03:11.574Z,15.70
2019-04-10T17:05:41.741Z,14.25
2019-04-10T17:08:10.410Z,16.25
2019-04-10T17:10:39.260Z,17.07
2019-04-10T17:13:08.923Z,16.25
2019-04-10T17:15:37.967Z,15.05
2019-04-10T17:18:06.771Z,16.65
2019-04-10T17:20:36.197Z,16.15
2019-04-10T17:23:06.570Z,16.65
2019-04-10T17:25:35.976Z,16.23
2019-04-10T17:28:04.791Z,15.15
2019-04-10T17:30:35.895Z,16.70
2019-04-10T17:33:06.752Z,16.85
2019-04-10T17:35:35.950Z,17.23
2019-04-10T17:38:04.916Z,17.75
2019-04-10T17:40:43.344Z,16.48
2019-04-10T17:43:05.324Z,16.97
2019-04-10T17:45:34.364Z,18.52
2019-04-10T17:48:03.437Z,17.82
2019-04-10T17:50:32.242Z,17.82
2019-04-10T17:53:01.218Z,18.23
2019-04-10T17:55:29.765Z,16.60
2019-04-10T17:57:58.458Z,17.35
2019-04-10T18:00:29.310Z,17.40
2019-04-10T18:02:59.130Z,17.52
2019-04-10T18:05:28.794Z,16.55
2019-04-10T18:07:58.676Z,17.92
2019-04-10T18:10:39.575Z,16.62
2019-04-10T18:12:58.918Z,18.67
2019-04-10T18:15:28.300Z,19.52
2019-04-10T18:17:57.658Z,17.77
2019-04-10T18:20:26.308Z,18.17
2019-04-10T18:22:55.391Z,17.40
2019-04-10T18:25:24.106Z,17.77
2019-04-10T18:27:52.745Z,17.10
2019-04-10T18:30:21.683Z,17.42
2019-04-10T18:32:50.399Z,19.00
2019-04-10T18:35:19.009Z,16.50
2019-04-10T18:37:48.052Z,19.40
2019-04-10T18:40:19.014Z,18.02
2019-04-10T18:42:47.807Z,17.67
2019-04-10T18:45:17.521Z,18.17
2019-04-10T18:47:46.490Z,17.75
2019-04-10T18:50:16.141Z,16.65
2019-04-10T18:52:45.609Z,18.15
2019-04-10T18:55:14.349Z,17.95
2019-04-10T18:57:43.211Z,17.77
2019-04-10T19:00:18.640Z,18.50
2019-04-10T19:02:55.261Z,17.27
2019-04-10T19:05:28.306Z,16.93
2019-04-10T19:07:57.171Z,19.55
2019-04-10T19:10:26.411Z,17.87
2019-04-10T19:12:55.038Z,19.15
2019-04-10T19:15:24.421Z,18.15
2019-04-10T19:17:53.465Z,18.35
2019-04-10T19:20:22.864Z,17.40
2019-04-10T19:22:52.785Z,17.70
2019-04-10T19:25:22.655Z,17.82
2019-04-10T19:27:52.636Z,18.30
2019-04-10T19:30:29.382Z,18.90
2019-04-10T19:32:57.932Z,17.37
2019-04-10T19:35:26.743Z,18.80
2019-04-10T19:37:56.667Z,18.85
2019-04-10T19:40:25.563Z,18.45
2019-04-10T19:42:54.436Z,17.48
2019-04-10T19:45:23.736Z,16.82
2019-04-10T19:47:52.826Z,19.00
2019-04-10T19:50:21.599Z,19.12
2019-04-10T19:52:50.777Z,18.80
2019-04-10T19:55:19.876Z,20.05
2019-04-10T19:57:48.450Z,18.85
2019-04-10T20:00:20.000Z,19.57
2019-04-10T20:02:49.061Z,19.70
2019-04-10T20:05:17.689Z,20.00
2019-04-10T20:07:46.234Z,20.77
2019-04-10T20:10:15.184Z,19.57
2019-04-10T20:12:44.684Z,20.88
2019-04-10T20:15:14.113Z,19.45
2019-04-10T20:17:42.882Z,19.25
2019-04-10T20:20:13.083Z,19.55
2019-04-10T20:22:43.924Z,19.10
2019-04-10T20:25:14.371Z,18.62
2019-04-10T20:27:42.982Z,18.67
2019-04-10T20:30:12.072Z,17.40
2019-04-10T20:32:41.875Z,17.45
2019-04-10T20:35:11.932Z,18.50
2019-04-10T20:37:40.488Z,18.00
2019-04-10T20:40:09.691Z,18.15
2019-04-10T20:42:38.355Z,17.48
2019-04-10T20:45:07.519Z,18.35
2019-04-10T20:47:37.214Z,15.70
2019-04-10T20:50:07.884Z,18.00
2019-04-10T20:52:39.415Z,16.95
2019-04-10T20:55:07.335Z,17.92
2019-04-10T20:57:35.909Z,19.20
2019-04-10T21:00:07.974Z,17.55
2019-04-10T21:02:36.583Z,17.37
2019-04-10T21:05:09.817Z,17.42
2019-04-10T21:07:37.562Z,16.93
2019-04-10T21:10:08.637Z,17.67
2019-04-10T21:12:37.433Z,16.73
2019-04-10T21:15:06.952Z,17.00
2019-04-10T21:17:35.475Z,17.37
2019-04-10T21:20:08.058Z,16.85
2019-04-10T21:22:36.643Z,17.37
2019-04-10T21:25:06.577Z,16.65
2019-04-10T21:27:35.553Z,16.12
2019-04-10T21:30:15.769Z,18.42
2019-04-10T21:33:02.336Z,17.73
2019-04-10T21:35:35.075Z,18.37
2019-04-10T21:38:04.807Z,17.37
2019-04-10T21:40:34.749Z,17.15
2019-04-10T21:43:04.085Z,17.65
2019-04-10T21:45:34.998Z,17.87
2019-04-10T21:48:03.844Z,19.62
2019-04-10T21:50:33.324Z,18.45
2019-04-10T21:53:01.897Z,18.55
2019-04-10T21:55:31.129Z,17.27
2019-04-10T21:58:00.024Z,18.60
2019-04-10T22:00:33.348Z,18.17
2019-04-10T22:03:02.863Z,18.17
2019-04-10T22:05:34.573Z,19.05
2019-04-10T22:08:11.017Z,18.90
2019-04-10T22:10:41.939Z,18.25
2019-04-10T22:13:11.352Z,17.70
2019-04-10T22:15:41.851Z,18.55
2019-04-10T22:18:10.454Z,17.95
2019-04-10T22:20:39.618Z,18.65
2019-04-10T22:23:09.704Z,19.15
2019-04-10T22:25:39.537Z,19.30
2019-04-10T22:28:08.379Z,19.37
2019-04-10T22:30:37.173Z,19.20
2019-04-10T22:33:06.224Z,18.57
2019-04-10T22:35:35.679Z,19.67
2019-04-10T22:38:04.852Z,19.48
2019-04-10T22:40:33.483Z,19.42
2019-04-10T22:43:03.274Z,20.08
2019-04-10T22:45:32.870Z,18.27
2019-04-10T22:48:01.552Z,19.02
2019-04-10T22:50:31.062Z,18.67
2019-04-10T22:53:01.226Z,18.45
2019-04-10T22:55:31.716Z,19.00
2019-04-10T22:58:00.424Z,17.82
2019-04-10T23:00:32.740Z,18.35
2019-04-10T23:03:03.134Z,19.65
2019-04-10T23:05:32.476Z,18.82
2019-04-10T23:08:01.307Z,19.23
2019-04-10T23:10:31.610Z,18.98
2019-04-10T23:13:04.853Z,20.20
2019-04-10T23:15:31.427Z,17.73
2019-04-10T23:18:01.296Z,18.45
2019-04-10T23:20:30.162Z,19.37
2019-04-10T23:22:58.934Z,19.30
2019-04-10T23:25:28.633Z,18.35
2019-04-10T23:27:57.513Z,18.10
2019-04-10T23:30:26.733Z,17.32
2019-04-10T23:32:55.534Z,18.32
2019-04-10T23:35:25.341Z,17.32
2019-04-10T23:37:55.111Z,18.60
2019-04-10T23:40:25.016Z,18.07
2019-04-10T23:43:06.827Z,18.87
2019-04-10T23:45:24.233Z,18.10
2019-04-10T23:47:53.003Z,17.90
2019-04-10T23:50:21.846Z,18.00
2019-04-10T23:52:50.413Z,18.45
2019-04-10T23:55:19.055Z,17.77
2019-04-10T23:57:47.602Z,18.27
